sensor_id;sensor_type;location;lat;lon;timestamp;P1;durP1;ratioP1;P2;durP2;ratioP2
7529;SDS011;3806;52.270;10.544;2023-05-07T00:00:07;23.10;;;12.48;;
7529;SDS011;3806;52.270;10.544;2023-05-07T00:02:34;20.00;;;13.15;;
7529;SDS011;3806;52.270;10.544;2023-05-07T00:05:00;23.55;;;13.10;;
7529;SDS011;3806;52.270;10.544;2023-05-07T00:07:27;22.50;;;14.07;;
7529;SDS011;3806;52.270;10.544;2023-05-07T00:09:53;22.52;;;12.73;;
7529;SDS011;3806;52.270;10.544;2023-05-07T00:12:18;21.27;;;12.32;;
7529;SDS011;3806;52.270;10.544;2023-05-07T00:14:44;23.55;;;13.23;;
7529;SDS011;3806;52.270;10.544;2023-05-07T00:17:10;21.42;;;13.35;;
7529;SDS011;3806;52.270;10.544;2023-05-07T00:19:36;23.13;;;13.25;;
7529;SDS011;3806;52.270;10.544;2023-05-07T00:22:01;19.33;;;11.68;;
7529;SDS011;3806;52.270;10.544;2023-05-07T00:24:27;22.00;;;12.57;;
7529;SDS011;3806;52.270;10.544;2023-05-07T00:26:52;21.90;;;12.10;;
7529;SDS011;3806;52.270;10.544;2023-05-07T00:29:18;21.45;;;12.10;;
7529;SDS011;3806;52.270;10.544;2023-05-07T00:31:43;19.50;;;11.52;;
7529;SDS011;3806;52.270;10.544;2023-05-07T00:34:09;17.98;;;10.25;;
7529;SDS011;3806;52.270;10.544;2023-05-07T00:36:35;16.20;;;9.18;;
7529;SDS011;3806;52.270;10.544;2023-05-07T00:39:00;16.90;;;9.02;;
7529;SDS011;3806;52.270;10.544;2023-05-07T00:41:28;13.45;;;8.80;;
7529;SDS011;3806;52.270;10.544;2023-05-07T00:43:55;15.32;;;8.85;;
7529;SDS011;3806;52.270;10.544;2023-05-07T00:46:21;14.95;;;8.57;;
7529;SDS011;3806;52.270;10.544;2023-05-07T00:48:47;14.05;;;8.32;;
7529;SDS011;3806;52.270;10.544;2023-05-07T00:51:14;14.77;;;8.63;;
7529;SDS011;3806;52.270;10.544;2023-05-07T00:53:40;16.02;;;8.15;;
7529;SDS011;3806;52.270;10.544;2023-05-07T00:56:06;16.17;;;9.68;;
7529;SDS011;3806;52.270;10.544;2023-05-07T00:58:32;17.85;;;9.90;;
7529;SDS011;3806;52.270;10.544;2023-05-07T01:00:59;15.98;;;9.27;;
7529;SDS011;3806;52.270;10.544;2023-05-07T01:03:24;21.75;;;10.20;;
7529;SDS011;3806;52.270;10.544;2023-05-07T01:05:50;15.18;;;8.75;;
7529;SDS011;3806;52.270;10.544;2023-05-07T01:08:17;15.93;;;8.50;;
7529;SDS011;3806;52.270;10.544;2023-05-07T01:10:43;15.75;;;9.07;;
7529;SDS011;3806;52.270;10.544;2023-05-07T01:13:10;16.85;;;9.13;;
7529;SDS011;3806;52.270;10.544;2023-05-07T01:15:37;14.02;;;8.40;;
7529;SDS011;3806;52.270;10.544;2023-05-07T01:18:03;14.77;;;8.90;;
7529;SDS011;3806;52.270;10.544;2023-05-07T01:20:29;13.45;;;7.80;;
7529;SDS011;3806;52.270;10.544;2023-05-07T01:22:55;16.42;;;9.00;;
7529;SDS011;3806;52.270;10.544;2023-05-07T01:25:22;12.85;;;7.25;;
7529;SDS011;3806;52.270;10.544;2023-05-07T01:27:48;15.80;;;8.43;;
7529;SDS011;3806;52.270;10.544;2023-05-07T01:30:13;12.90;;;8.68;;
7529;SDS011;3806;52.270;10.544;2023-05-07T01:35:11;13.95;;;7.53;;
7529;SDS011;3806;52.270;10.544;2023-05-07T01:37:43;14.70;;;7.93;;
7529;SDS011;3806;52.270;10.544;2023-05-07T01:40:10;15.77;;;8.85;;
7529;SDS011;3806;52.270;10.544;2023-05-07T01:42:36;13.75;;;7.53;;
7529;SDS011;3806;52.270;10.544;2023-05-07T01:45:01;13.20;;;7.57;;
7529;SDS011;3806;52.270;10.544;2023-05-07T01:47:27;11.82;;;7.20;;
7529;SDS011;3806;52.270;10.544;2023-05-07T01:49:54;11.68;;;7.88;;
7529;SDS011;3806;52.270;10.544;2023-05-07T01:52:20;12.65;;;7.07;;
7529;SDS011;3806;52.270;10.544;2023-05-07T01:54:46;12.20;;;6.88;;
7529;SDS011;3806;52.270;10.544;2023-05-07T01:57:11;12.40;;;6.60;;
7529;SDS011;3806;52.270;10.544;2023-05-07T01:59:37;12.10;;;7.45;;
7529;SDS011;3806;52.270;10.544;2023-05-07T02:02:02;11.13;;;6.53;;
7529;SDS011;3806;52.270;10.544;2023-05-07T02:04:28;11.68;;;6.85;;
7529;SDS011;3806;52.270;10.544;2023-05-07T02:06:53;11.20;;;6.90;;
7529;SDS011;3806;52.270;10.544;2023-05-07T02:09:19;9.38;;;6.35;;
7529;SDS011;3806;52.270;10.544;2023-05-07T02:11:44;11.43;;;7.10;;
7529;SDS011;3806;52.270;10.544;2023-05-07T02:14:10;10.68;;;6.97;;
7529;SDS011;3806;52.270;10.544;2023-05-07T02:16:36;10.98;;;6.65;;
7529;SDS011;3806;52.270;10.544;2023-05-07T02:19:01;12.93;;;7.43;;
7529;SDS011;3806;52.270;10.544;2023-05-07T02:21:27;12.65;;;7.60;;
7529;SDS011;3806;52.270;10.544;2023-05-07T02:23:53;9.50;;;5.85;;
7529;SDS011;3806;52.270;10.544;2023-05-07T02:26:18;11.75;;;7.30;;
7529;SDS011;3806;52.270;10.544;2023-05-07T02:28:44;11.68;;;6.72;;
7529;SDS011;3806;52.270;10.544;2023-05-07T02:31:09;11.95;;;6.88;;
7529;SDS011;3806;52.270;10.544;2023-05-07T02:33:35;11.35;;;6.63;;
7529;SDS011;3806;52.270;10.544;2023-05-07T02:36:11;9.07;;;5.72;;
7529;SDS011;3806;52.270;10.544;2023-05-07T02:41:03;11.37;;;5.80;;
7529;SDS011;3806;52.270;10.544;2023-05-07T02:43:28;8.68;;;6.00;;
7529;SDS011;3806;52.270;10.544;2023-05-07T02:46:01;10.15;;;6.32;;
7529;SDS011;3806;52.270;10.544;2023-05-07T02:48:27;11.90;;;7.80;;
7529;SDS011;3806;52.270;10.544;2023-05-07T02:50:53;11.73;;;7.80;;
7529;SDS011;3806;52.270;10.544;2023-05-07T02:53:18;11.30;;;6.55;;
7529;SDS011;3806;52.270;10.544;2023-05-07T02:55:44;9.85;;;6.38;;
7529;SDS011;3806;52.270;10.544;2023-05-07T02:58:09;9.40;;;5.72;;
7529;SDS011;3806;52.270;10.544;2023-05-07T03:00:35;12.70;;;6.78;;
7529;SDS011;3806;52.270;10.544;2023-05-07T03:03:01;11.48;;;6.70;;
7529;SDS011;3806;52.270;10.544;2023-05-07T03:05:26;11.73;;;6.15;;
7529;SDS011;3806;52.270;10.544;2023-05-07T03:07:52;12.60;;;6.05;;
7529;SDS011;3806;52.270;10.544;2023-05-07T03:10:17;10.30;;;6.47;;
7529;SDS011;3806;52.270;10.544;2023-05-07T03:12:43;8.20;;;5.78;;
7529;SDS011;3806;52.270;10.544;2023-05-07T03:15:09;9.82;;;6.70;;
7529;SDS011;3806;52.270;10.544;2023-05-07T03:17:37;9.02;;;6.70;;
7529;SDS011;3806;52.270;10.544;2023-05-07T03:20:03;8.93;;;6.50;;
7529;SDS011;3806;52.270;10.544;2023-05-07T03:22:29;10.38;;;6.22;;
7529;SDS011;3806;52.270;10.544;2023-05-07T03:24:54;9.00;;;6.15;;
7529;SDS011;3806;52.270;10.544;2023-05-07T03:27:20;11.10;;;7.32;;
7529;SDS011;3806;52.270;10.544;2023-05-07T03:29:45;10.82;;;6.45;;
7529;SDS011;3806;52.270;10.544;2023-05-07T03:32:11;13.35;;;7.53;;
7529;SDS011;3806;52.270;10.544;2023-05-07T03:34:37;10.60;;;6.20;;
7529;SDS011;3806;52.270;10.544;2023-05-07T03:37:02;10.35;;;7.38;;
7529;SDS011;3806;52.270;10.544;2023-05-07T03:39:28;11.20;;;5.72;;
7529;SDS011;3806;52.270;10.544;2023-05-07T03:41:53;10.13;;;6.22;;
7529;SDS011;3806;52.270;10.544;2023-05-07T03:44:19;9.93;;;6.38;;
7529;SDS011;3806;52.270;10.544;2023-05-07T03:46:45;12.48;;;6.82;;
7529;SDS011;3806;52.270;10.544;2023-05-07T03:49:10;9.90;;;6.72;;
7529;SDS011;3806;52.270;10.544;2023-05-07T03:51:36;10.68;;;7.63;;
7529;SDS011;3806;52.270;10.544;2023-05-07T03:54:01;11.13;;;6.95;;
7529;SDS011;3806;52.270;10.544;2023-05-07T03:56:27;12.15;;;6.75;;
7529;SDS011;3806;52.270;10.544;2023-05-07T03:58:53;9.95;;;6.03;;
7529;SDS011;3806;52.270;10.544;2023-05-07T04:01:18;11.25;;;6.88;;
7529;SDS011;3806;52.270;10.544;2023-05-07T04:03:44;7.90;;;5.72;;
7529;SDS011;3806;52.270;10.544;2023-05-07T04:06:09;8.45;;;5.70;;
7529;SDS011;3806;52.270;10.544;2023-05-07T04:08:35;9.18;;;6.10;;
7529;SDS011;3806;52.270;10.544;2023-05-07T04:11:01;8.55;;;6.30;;
7529;SDS011;3806;52.270;10.544;2023-05-07T04:13:26;12.05;;;6.55;;
7529;SDS011;3806;52.270;10.544;2023-05-07T04:15:52;9.88;;;6.60;;
7529;SDS011;3806;52.270;10.544;2023-05-07T04:18:20;9.57;;;5.43;;
7529;SDS011;3806;52.270;10.544;2023-05-07T04:20:46;8.88;;;5.82;;
7529;SDS011;3806;52.270;10.544;2023-05-07T04:23:12;9.23;;;6.10;;
7529;SDS011;3806;52.270;10.544;2023-05-07T04:25:38;8.13;;;5.72;;
7529;SDS011;3806;52.270;10.544;2023-05-07T04:28:03;7.88;;;5.15;;
7529;SDS011;3806;52.270;10.544;2023-05-07T04:30:29;9.50;;;5.38;;
7529;SDS011;3806;52.270;10.544;2023-05-07T04:32:55;11.00;;;5.85;;
7529;SDS011;3806;52.270;10.544;2023-05-07T04:35:21;7.93;;;5.82;;
7529;SDS011;3806;52.270;10.544;2023-05-07T04:37:46;8.77;;;5.35;;
7529;SDS011;3806;52.270;10.544;2023-05-07T04:40:12;7.53;;;5.07;;
7529;SDS011;3806;52.270;10.544;2023-05-07T04:42:38;7.93;;;6.50;;
7529;SDS011;3806;52.270;10.544;2023-05-07T04:45:04;8.18;;;5.72;;
7529;SDS011;3806;52.270;10.544;2023-05-07T04:47:30;8.43;;;5.63;;
7529;SDS011;3806;52.270;10.544;2023-05-07T04:49:55;9.48;;;5.45;;
7529;SDS011;3806;52.270;10.544;2023-05-07T04:52:22;7.97;;;5.40;;
7529;SDS011;3806;52.270;10.544;2023-05-07T04:54:47;12.50;;;6.07;;
7529;SDS011;3806;52.270;10.544;2023-05-07T04:57:13;7.25;;;5.05;;
7529;SDS011;3806;52.270;10.544;2023-05-07T04:59:38;7.72;;;5.10;;
7529;SDS011;3806;52.270;10.544;2023-05-07T05:02:04;7.15;;;5.13;;
7529;SDS011;3806;52.270;10.544;2023-05-07T05:04:29;9.38;;;4.88;;
7529;SDS011;3806;52.270;10.544;2023-05-07T05:06:55;8.35;;;4.45;;
7529;SDS011;3806;52.270;10.544;2023-05-07T05:09:21;7.43;;;5.20;;
7529;SDS011;3806;52.270;10.544;2023-05-07T05:11:47;7.88;;;5.22;;
7529;SDS011;3806;52.270;10.544;2023-05-07T05:14:12;7.32;;;4.30;;
7529;SDS011;3806;52.270;10.544;2023-05-07T05:16:38;6.70;;;4.47;;
7529;SDS011;3806;52.270;10.544;2023-05-07T05:19:03;7.53;;;4.80;;
7529;SDS011;3806;52.270;10.544;2023-05-07T05:21:29;7.20;;;4.53;;
7529;SDS011;3806;52.270;10.544;2023-05-07T05:23:55;6.15;;;4.03;;
7529;SDS011;3806;52.270;10.544;2023-05-07T05:26:21;6.43;;;5.25;;
7529;SDS011;3806;52.270;10.544;2023-05-07T05:28:46;8.20;;;5.18;;
7529;SDS011;3806;52.270;10.544;2023-05-07T05:31:12;8.48;;;5.75;;
7529;SDS011;3806;52.270;10.544;2023-05-07T05:33:39;6.85;;;4.75;;
7529;SDS011;3806;52.270;10.544;2023-05-07T05:36:05;7.57;;;4.80;;
7529;SDS011;3806;52.270;10.544;2023-05-07T05:38:31;7.50;;;5.03;;
7529;SDS011;3806;52.270;10.544;2023-05-07T05:40:56;7.80;;;4.95;;
7529;SDS011;3806;52.270;10.544;2023-05-07T05:43:22;9.27;;;5.40;;
7529;SDS011;3806;52.270;10.544;2023-05-07T05:45:48;8.80;;;5.65;;
7529;SDS011;3806;52.270;10.544;2023-05-07T05:48:13;9.15;;;6.22;;
7529;SDS011;3806;52.270;10.544;2023-05-07T05:50:39;8.23;;;5.65;;
7529;SDS011;3806;52.270;10.544;2023-05-07T05:53:04;9.23;;;6.45;;
7529;SDS011;3806;52.270;10.544;2023-05-07T05:55:30;9.55;;;6.07;;
7529;SDS011;3806;52.270;10.544;2023-05-07T05:57:57;9.68;;;6.65;;
7529;SDS011;3806;52.270;10.544;2023-05-07T06:00:23;12.20;;;6.90;;
7529;SDS011;3806;52.270;10.544;2023-05-07T06:02:49;9.13;;;6.22;;
7529;SDS011;3806;52.270;10.544;2023-05-07T06:05:14;6.97;;;5.00;;
7529;SDS011;3806;52.270;10.544;2023-05-07T06:07:40;9.15;;;7.07;;
7529;SDS011;3806;52.270;10.544;2023-05-07T06:10:06;11.02;;;6.03;;
7529;SDS011;3806;52.270;10.544;2023-05-07T06:12:32;9.43;;;6.72;;
7529;SDS011;3806;52.270;10.544;2023-05-07T06:14:57;9.80;;;6.53;;
7529;SDS011;3806;52.270;10.544;2023-05-07T06:17:23;8.82;;;6.93;;
7529;SDS011;3806;52.270;10.544;2023-05-07T06:19:48;9.38;;;6.40;;
7529;SDS011;3806;52.270;10.544;2023-05-07T06:22:14;8.73;;;6.68;;
7529;SDS011;3806;52.270;10.544;2023-05-07T06:24:39;10.20;;;6.97;;
7529;SDS011;3806;52.270;10.544;2023-05-07T06:27:05;9.18;;;6.15;;
7529;SDS011;3806;52.270;10.544;2023-05-07T06:29:31;8.48;;;5.85;;
7529;SDS011;3806;52.270;10.544;2023-05-07T06:32:05;8.32;;;5.30;;
7529;SDS011;3806;52.270;10.544;2023-05-07T06:34:35;7.47;;;5.25;;
7529;SDS011;3806;52.270;10.544;2023-05-07T06:37:00;8.25;;;5.47;;
7529;SDS011;3806;52.270;10.544;2023-05-07T06:39:26;8.65;;;5.28;;
7529;SDS011;3806;52.270;10.544;2023-05-07T06:41:52;7.93;;;5.50;;
7529;SDS011;3806;52.270;10.544;2023-05-07T06:44:18;8.98;;;5.22;;
7529;SDS011;3806;52.270;10.544;2023-05-07T06:46:43;7.68;;;5.90;;
7529;SDS011;3806;52.270;10.544;2023-05-07T06:49:10;9.68;;;5.60;;
7529;SDS011;3806;52.270;10.544;2023-05-07T06:51:37;6.72;;;4.32;;
7529;SDS011;3806;52.270;10.544;2023-05-07T06:54:03;6.80;;;4.95;;
7529;SDS011;3806;52.270;10.544;2023-05-07T06:56:29;6.72;;;4.43;;
7529;SDS011;3806;52.270;10.544;2023-05-07T06:58:55;8.35;;;5.22;;
7529;SDS011;3806;52.270;10.544;2023-05-07T07:01:21;7.53;;;4.63;;
7529;SDS011;3806;52.270;10.544;2023-05-07T07:03:46;7.03;;;4.78;;
7529;SDS011;3806;52.270;10.544;2023-05-07T07:06:12;6.07;;;4.55;;
7529;SDS011;3806;52.270;10.544;2023-05-07T07:08:38;7.63;;;4.53;;
7529;SDS011;3806;52.270;10.544;2023-05-07T07:11:04;6.28;;;4.60;;
7529;SDS011;3806;52.270;10.544;2023-05-07T07:13:30;7.72;;;5.10;;
7529;SDS011;3806;52.270;10.544;2023-05-07T07:15:55;6.30;;;4.28;;
7529;SDS011;3806;52.270;10.544;2023-05-07T07:18:21;7.25;;;4.70;;
7529;SDS011;3806;52.270;10.544;2023-05-07T07:20:47;7.40;;;4.95;;
7529;SDS011;3806;52.270;10.544;2023-05-07T07:23:12;6.93;;;4.53;;
7529;SDS011;3806;52.270;10.544;2023-05-07T07:25:38;7.43;;;4.75;;
7529;SDS011;3806;52.270;10.544;2023-05-07T07:28:03;7.53;;;5.35;;
7529;SDS011;3806;52.270;10.544;2023-05-07T07:30:30;8.52;;;5.30;;
7529;SDS011;3806;52.270;10.544;2023-05-07T07:32:55;9.20;;;6.15;;
7529;SDS011;3806;52.270;10.544;2023-05-07T07:35:27;7.97;;;5.68;;
7529;SDS011;3806;52.270;10.544;2023-05-07T07:37:53;6.70;;;5.07;;
7529;SDS011;3806;52.270;10.544;2023-05-07T07:40:18;9.77;;;5.50;;
7529;SDS011;3806;52.270;10.544;2023-05-07T07:42:44;8.00;;;5.28;;
7529;SDS011;3806;52.270;10.544;2023-05-07T07:45:10;7.63;;;4.95;;
7529;SDS011;3806;52.270;10.544;2023-05-07T07:47:35;8.25;;;4.60;;
7529;SDS011;3806;52.270;10.544;2023-05-07T07:50:01;9.02;;;4.97;;
7529;SDS011;3806;52.270;10.544;2023-05-07T07:52:26;7.95;;;5.03;;
7529;SDS011;3806;52.270;10.544;2023-05-07T07:54:52;7.60;;;5.25;;
7529;SDS011;3806;52.270;10.544;2023-05-07T07:57:17;10.32;;;5.75;;
7529;SDS011;3806;52.270;10.544;2023-05-07T07:59:43;7.90;;;4.88;;
7529;SDS011;3806;52.270;10.544;2023-05-07T08:02:09;8.88;;;4.93;;
7529;SDS011;3806;52.270;10.544;2023-05-07T08:04:34;7.15;;;4.72;;
7529;SDS011;3806;52.270;10.544;2023-05-07T08:07:02;5.88;;;4.63;;
7529;SDS011;3806;52.270;10.544;2023-05-07T08:09:27;6.13;;;4.13;;
7529;SDS011;3806;52.270;10.544;2023-05-07T08:11:53;7.18;;;5.07;;
7529;SDS011;3806;52.270;10.544;2023-05-07T08:14:18;6.50;;;4.35;;
7529;SDS011;3806;52.270;10.544;2023-05-07T08:16:44;7.68;;;5.03;;
7529;SDS011;3806;52.270;10.544;2023-05-07T08:19:10;7.38;;;5.00;;
7529;SDS011;3806;52.270;10.544;2023-05-07T08:21:38;9.05;;;6.13;;
7529;SDS011;3806;52.270;10.544;2023-05-07T08:24:04;7.93;;;5.97;;
7529;SDS011;3806;52.270;10.544;2023-05-07T08:26:30;7.72;;;5.97;;
7529;SDS011;3806;52.270;10.544;2023-05-07T08:28:56;8.85;;;5.43;;
7529;SDS011;3806;52.270;10.544;2023-05-07T08:31:22;7.65;;;5.32;;
7529;SDS011;3806;52.270;10.544;2023-05-07T08:33:48;9.48;;;6.15;;
7529;SDS011;3806;52.270;10.544;2023-05-07T08:36:13;8.90;;;5.57;;
7529;SDS011;3806;52.270;10.544;2023-05-07T08:38:39;10.18;;;6.32;;
7529;SDS011;3806;52.270;10.544;2023-05-07T08:41:09;8.88;;;6.10;;
7529;SDS011;3806;52.270;10.544;2023-05-07T08:43:35;8.77;;;6.53;;
7529;SDS011;3806;52.270;10.544;2023-05-07T08:46:02;8.68;;;6.07;;
7529;SDS011;3806;52.270;10.544;2023-05-07T08:48:29;7.88;;;5.50;;
7529;SDS011;3806;52.270;10.544;2023-05-07T08:50:57;9.30;;;5.70;;
7529;SDS011;3806;52.270;10.544;2023-05-07T08:53:23;7.32;;;5.10;;
7529;SDS011;3806;52.270;10.544;2023-05-07T08:55:49;6.20;;;4.97;;
7529;SDS011;3806;52.270;10.544;2023-05-07T08:58:16;7.70;;;5.63;;
7529;SDS011;3806;52.270;10.544;2023-05-07T09:00:41;8.77;;;5.07;;
7529;SDS011;3806;52.270;10.544;2023-05-07T09:03:07;7.18;;;5.18;;
7529;SDS011;3806;52.270;10.544;2023-05-07T09:05:33;8.05;;;5.72;;
7529;SDS011;3806;52.270;10.544;2023-05-07T09:07:59;9.32;;;5.85;;
7529;SDS011;3806;52.270;10.544;2023-05-07T09:10:30;7.43;;;5.43;;
7529;SDS011;3806;52.270;10.544;2023-05-07T09:12:58;7.85;;;5.43;;
7529;SDS011;3806;52.270;10.544;2023-05-07T09:15:24;8.82;;;5.93;;
7529;SDS011;3806;52.270;10.544;2023-05-07T09:17:50;7.70;;;5.20;;
7529;SDS011;3806;52.270;10.544;2023-05-07T09:20:15;7.68;;;5.63;;
7529;SDS011;3806;52.270;10.544;2023-05-07T09:22:41;6.47;;;4.97;;
7529;SDS011;3806;52.270;10.544;2023-05-07T09:25:09;6.95;;;4.97;;
7529;SDS011;3806;52.270;10.544;2023-05-07T09:27:34;6.60;;;4.53;;
7529;SDS011;3806;52.270;10.544;2023-05-07T09:30:06;7.00;;;4.35;;
7529;SDS011;3806;52.270;10.544;2023-05-07T09:32:34;6.35;;;4.60;;
7529;SDS011;3806;52.270;10.544;2023-05-07T09:35:03;7.47;;;5.03;;
7529;SDS011;3806;52.270;10.544;2023-05-07T09:37:30;5.85;;;4.50;;
7529;SDS011;3806;52.270;10.544;2023-05-07T09:39:56;7.28;;;4.45;;
7529;SDS011;3806;52.270;10.544;2023-05-07T09:42:25;8.20;;;3.60;;
7529;SDS011;3806;52.270;10.544;2023-05-07T09:44:52;5.70;;;3.60;;
7529;SDS011;3806;52.270;10.544;2023-05-07T09:47:18;6.30;;;3.92;;
7529;SDS011;3806;52.270;10.544;2023-05-07T09:49:46;6.05;;;3.75;;
7529;SDS011;3806;52.270;10.544;2023-05-07T09:52:13;7.78;;;4.45;;
7529;SDS011;3806;52.270;10.544;2023-05-07T09:54:40;5.00;;;3.95;;
7529;SDS011;3806;52.270;10.544;2023-05-07T09:57:08;5.88;;;4.15;;
7529;SDS011;3806;52.270;10.544;2023-05-07T09:59:36;5.03;;;3.38;;
7529;SDS011;3806;52.270;10.544;2023-05-07T10:02:03;5.75;;;3.42;;
7529;SDS011;3806;52.270;10.544;2023-05-07T10:04:30;5.95;;;3.97;;
7529;SDS011;3806;52.270;10.544;2023-05-07T10:06:56;4.20;;;3.47;;
7529;SDS011;3806;52.270;10.544;2023-05-07T10:09:23;5.35;;;3.60;;
7529;SDS011;3806;52.270;10.544;2023-05-07T10:11:52;5.00;;;3.10;;
7529;SDS011;3806;52.270;10.544;2023-05-07T10:14:19;4.28;;;3.40;;
7529;SDS011;3806;52.270;10.544;2023-05-07T10:16:46;3.72;;;3.13;;
7529;SDS011;3806;52.270;10.544;2023-05-07T10:19:12;5.07;;;3.10;;
7529;SDS011;3806;52.270;10.544;2023-05-07T10:21:44;5.30;;;3.47;;
7529;SDS011;3806;52.270;10.544;2023-05-07T10:24:21;4.57;;;3.60;;
7529;SDS011;3806;52.270;10.544;2023-05-07T10:26:51;5.15;;;3.97;;
7529;SDS011;3806;52.270;10.544;2023-05-07T10:29:19;6.28;;;4.22;;
7529;SDS011;3806;52.270;10.544;2023-05-07T10:34:32;6.03;;;3.88;;
7529;SDS011;3806;52.270;10.544;2023-05-07T10:37:03;5.50;;;3.63;;
7529;SDS011;3806;52.270;10.544;2023-05-07T10:39:30;5.43;;;4.47;;
7529;SDS011;3806;52.270;10.544;2023-05-07T10:41:56;4.75;;;4.00;;
7529;SDS011;3806;52.270;10.544;2023-05-07T10:44:28;6.07;;;3.97;;
7529;SDS011;3806;52.270;10.544;2023-05-07T10:47:04;4.25;;;3.25;;
7529;SDS011;3806;52.270;10.544;2023-05-07T10:52:20;5.05;;;3.85;;
7529;SDS011;3806;52.270;10.544;2023-05-07T10:54:49;5.72;;;3.90;;
7529;SDS011;3806;52.270;10.544;2023-05-07T10:57:42;4.57;;;3.40;;
7529;SDS011;3806;52.270;10.544;2023-05-07T11:05:26;3.60;;;2.90;;
7529;SDS011;3806;52.270;10.544;2023-05-07T11:07:54;4.68;;;3.30;;
7529;SDS011;3806;52.270;10.544;2023-05-07T11:10:21;5.55;;;3.42;;
7529;SDS011;3806;52.270;10.544;2023-05-07T11:12:48;4.57;;;3.00;;
7529;SDS011;3806;52.270;10.544;2023-05-07T11:15:15;3.90;;;2.95;;
7529;SDS011;3806;52.270;10.544;2023-05-07T11:17:59;3.72;;;2.70;;
7529;SDS011;3806;52.270;10.544;2023-05-07T11:24:08;3.85;;;2.65;;
7529;SDS011;3806;52.270;10.544;2023-05-07T11:26:14;3.65;;;2.67;;
7529;SDS011;3806;52.270;10.544;2023-05-07T11:28:41;3.85;;;2.60;;
7529;SDS011;3806;52.270;10.544;2023-05-07T11:31:08;3.20;;;2.58;;
7529;SDS011;3806;52.270;10.544;2023-05-07T11:33:35;4.07;;;2.40;;
7529;SDS011;3806;52.270;10.544;2023-05-07T11:36:04;3.63;;;2.30;;
7529;SDS011;3806;52.270;10.544;2023-05-07T11:38:30;3.83;;;2.80;;
7529;SDS011;3806;52.270;10.544;2023-05-07T11:40:59;4.55;;;3.00;;
7529;SDS011;3806;52.270;10.544;2023-05-07T11:43:30;3.55;;;2.88;;
7529;SDS011;3806;52.270;10.544;2023-05-07T11:46:04;6.85;;;2.85;;
7529;SDS011;3806;52.270;10.544;2023-05-07T11:48:34;3.30;;;2.97;;
7529;SDS011;3806;52.270;10.544;2023-05-07T11:53:27;4.53;;;2.88;;
7529;SDS011;3806;52.270;10.544;2023-05-07T11:55:54;4.72;;;3.40;;
7529;SDS011;3806;52.270;10.544;2023-05-07T11:58:21;4.75;;;3.22;;
7529;SDS011;3806;52.270;10.544;2023-05-07T12:00:48;6.38;;;3.72;;
7529;SDS011;3806;52.270;10.544;2023-05-07T12:03:14;5.05;;;3.45;;
7529;SDS011;3806;52.270;10.544;2023-05-07T12:05:40;6.20;;;3.85;;
7529;SDS011;3806;52.270;10.544;2023-05-07T12:08:06;6.30;;;3.65;;
7529;SDS011;3806;52.270;10.544;2023-05-07T12:10:32;5.57;;;3.40;;
7529;SDS011;3806;52.270;10.544;2023-05-07T12:12:58;5.15;;;3.60;;
7529;SDS011;3806;52.270;10.544;2023-05-07T12:15:23;6.55;;;3.75;;
7529;SDS011;3806;52.270;10.544;2023-05-07T12:17:49;4.80;;;3.45;;
7529;SDS011;3806;52.270;10.544;2023-05-07T12:20:15;5.03;;;3.80;;
7529;SDS011;3806;52.270;10.544;2023-05-07T12:22:42;4.95;;;3.78;;
7529;SDS011;3806;52.270;10.544;2023-05-07T12:25:08;5.82;;;3.60;;
7529;SDS011;3806;52.270;10.544;2023-05-07T12:27:36;5.95;;;3.75;;
7529;SDS011;3806;52.270;10.544;2023-05-07T12:30:03;5.53;;;3.95;;
7529;SDS011;3806;52.270;10.544;2023-05-07T12:32:28;5.40;;;3.55;;
7529;SDS011;3806;52.270;10.544;2023-05-07T12:34:54;4.85;;;3.60;;
7529;SDS011;3806;52.270;10.544;2023-05-07T12:37:23;9.98;;;3.90;;
7529;SDS011;3806;52.270;10.544;2023-05-07T12:40:03;5.93;;;3.92;;
7529;SDS011;3806;52.270;10.544;2023-05-07T12:42:33;5.68;;;3.70;;
7529;SDS011;3806;52.270;10.544;2023-05-07T12:45:07;6.85;;;4.03;;
7529;SDS011;3806;52.270;10.544;2023-05-07T12:47:36;5.57;;;4.03;;
7529;SDS011;3806;52.270;10.544;2023-05-07T12:50:04;5.38;;;3.65;;
7529;SDS011;3806;52.270;10.544;2023-05-07T12:52:31;5.20;;;3.67;;
7529;SDS011;3806;52.270;10.544;2023-05-07T12:54:57;5.38;;;3.42;;
7529;SDS011;3806;52.270;10.544;2023-05-07T12:57:30;4.82;;;2.95;;
7529;SDS011;3806;52.270;10.544;2023-05-07T13:00:02;4.55;;;3.28;;
7529;SDS011;3806;52.270;10.544;2023-05-07T13:02:36;4.43;;;3.13;;
7529;SDS011;3806;52.270;10.544;2023-05-07T13:05:03;4.70;;;3.22;;
7529;SDS011;3806;52.270;10.544;2023-05-07T13:07:29;4.88;;;3.65;;
7529;SDS011;3806;52.270;10.544;2023-05-07T13:09:54;4.60;;;3.00;;
7529;SDS011;3806;52.270;10.544;2023-05-07T13:12:20;6.35;;;3.50;;
7529;SDS011;3806;52.270;10.544;2023-05-07T13:14:46;6.00;;;3.33;;
7529;SDS011;3806;52.270;10.544;2023-05-07T13:17:11;4.07;;;3.38;;
7529;SDS011;3806;52.270;10.544;2023-05-07T13:19:37;5.50;;;3.53;;
7529;SDS011;3806;52.270;10.544;2023-05-07T13:22:03;4.47;;;3.40;;
7529;SDS011;3806;52.270;10.544;2023-05-07T13:24:29;4.28;;;3.38;;
7529;SDS011;3806;52.270;10.544;2023-05-07T13:26:54;3.83;;;3.00;;
7529;SDS011;3806;52.270;10.544;2023-05-07T13:29:20;3.60;;;2.80;;
7529;SDS011;3806;52.270;10.544;2023-05-07T13:31:50;4.32;;;2.85;;
7529;SDS011;3806;52.270;10.544;2023-05-07T13:34:15;5.95;;;3.38;;
7529;SDS011;3806;52.270;10.544;2023-05-07T13:36:41;4.78;;;3.45;;
7529;SDS011;3806;52.270;10.544;2023-05-07T13:39:07;4.40;;;3.47;;
7529;SDS011;3806;52.270;10.544;2023-05-07T13:41:34;5.20;;;3.42;;
7529;SDS011;3806;52.270;10.544;2023-05-07T13:43:59;4.95;;;3.53;;
7529;SDS011;3806;52.270;10.544;2023-05-07T13:46:25;3.10;;;2.78;;
7529;SDS011;3806;52.270;10.544;2023-05-07T13:48:50;4.93;;;2.92;;
7529;SDS011;3806;52.270;10.544;2023-05-07T13:51:16;4.68;;;3.42;;
7529;SDS011;3806;52.270;10.544;2023-05-07T13:53:42;6.75;;;3.55;;
7529;SDS011;3806;52.270;10.544;2023-05-07T13:56:07;4.35;;;3.30;;
7529;SDS011;3806;52.270;10.544;2023-05-07T13:58:33;4.53;;;2.90;;
7529;SDS011;3806;52.270;10.544;2023-05-07T14:00:59;5.07;;;2.95;;
7529;SDS011;3806;52.270;10.544;2023-05-07T14:03:24;3.45;;;2.47;;
7529;SDS011;3806;52.270;10.544;2023-05-07T14:05:50;5.13;;;2.80;;
7529;SDS011;3806;52.270;10.544;2023-05-07T14:08:15;4.63;;;3.33;;
7529;SDS011;3806;52.270;10.544;2023-05-07T14:10:44;4.97;;;3.38;;
7529;SDS011;3806;52.270;10.544;2023-05-07T14:13:11;4.18;;;2.75;;
7529;SDS011;3806;52.270;10.544;2023-05-07T14:15:36;3.85;;;3.28;;
7529;SDS011;3806;52.270;10.544;2023-05-07T14:18:02;4.97;;;3.13;;
7529;SDS011;3806;52.270;10.544;2023-05-07T14:20:28;3.78;;;2.90;;
7529;SDS011;3806;52.270;10.544;2023-05-07T14:22:55;7.38;;;4.13;;
7529;SDS011;3806;52.270;10.544;2023-05-07T14:25:21;3.67;;;2.95;;
7529;SDS011;3806;52.270;10.544;2023-05-07T14:27:47;5.28;;;3.60;;
7529;SDS011;3806;52.270;10.544;2023-05-07T14:30:12;4.82;;;3.67;;
7529;SDS011;3806;52.270;10.544;2023-05-07T14:32:38;4.75;;;3.38;;
7529;SDS011;3806;52.270;10.544;2023-05-07T14:35:04;4.38;;;3.13;;
7529;SDS011;3806;52.270;10.544;2023-05-07T14:37:29;4.47;;;3.10;;
7529;SDS011;3806;52.270;10.544;2023-05-07T14:39:55;4.57;;;3.30;;
7529;SDS011;3806;52.270;10.544;2023-05-07T14:42:21;6.75;;;3.78;;
7529;SDS011;3806;52.270;10.544;2023-05-07T14:44:47;4.97;;;3.63;;
7529;SDS011;3806;52.270;10.544;2023-05-07T14:47:13;5.47;;;3.80;;
7529;SDS011;3806;52.270;10.544;2023-05-07T14:49:40;6.20;;;3.53;;
7529;SDS011;3806;52.270;10.544;2023-05-07T14:52:05;5.50;;;3.80;;
7529;SDS011;3806;52.270;10.544;2023-05-07T14:54:33;5.13;;;3.63;;
7529;SDS011;3806;52.270;10.544;2023-05-07T14:57:00;4.20;;;3.35;;
7529;SDS011;3806;52.270;10.544;2023-05-07T14:59:26;7.95;;;3.78;;
7529;SDS011;3806;52.270;10.544;2023-05-07T15:01:52;5.20;;;3.97;;
7529;SDS011;3806;52.270;10.544;2023-05-07T15:04:17;6.90;;;4.50;;
7529;SDS011;3806;52.270;10.544;2023-05-07T15:06:45;7.30;;;4.60;;
7529;SDS011;3806;52.270;10.544;2023-05-07T15:09:11;5.85;;;4.65;;
7529;SDS011;3806;52.270;10.544;2023-05-07T15:11:37;7.20;;;4.20;;
7529;SDS011;3806;52.270;10.544;2023-05-07T15:14:02;6.20;;;4.32;;